sensor_id;sensor_type;location;lat;lon;timestamp;P1;durP1;ratioP1;P2;durP2;ratioP2
36597;SDS011;22607;49.550;11.940;2023-06-10T00:01:15;8.13;;;3.80;;
36597;SDS011;22607;49.550;11.940;2023-06-10T00:03:42;8.43;;;3.67;;
36597;SDS011;22607;49.550;11.940;2023-06-10T00:06:10;7.63;;;3.45;;
36597;SDS011;22607;49.550;11.940;2023-06-10T00:08:37;8.13;;;3.33;;
36597;SDS011;22607;49.550;11.940;2023-06-10T00:11:06;8.00;;;3.78;;
36597;SDS011;22607;49.550;11.940;2023-06-10T00:13:32;7.18;;;3.25;;
36597;SDS011;22607;49.550;11.940;2023-06-10T00:15:59;8.00;;;3.60;;
36597;SDS011;22607;49.550;11.940;2023-06-10T00:18:26;8.15;;;3.53;;
36597;SDS011;22607;49.550;11.940;2023-06-10T00:20:53;8.23;;;3.40;;
36597;SDS011;22607;49.550;11.940;2023-06-10T00:23:21;7.90;;;3.53;;
36597;SDS011;22607;49.550;11.940;2023-06-10T00:25:48;7.30;;;3.15;;
36597;SDS011;22607;49.550;11.940;2023-06-10T00:28:15;8.10;;;3.78;;
36597;SDS011;22607;49.550;11.940;2023-06-10T00:30:42;7.90;;;3.78;;
36597;SDS011;22607;49.550;11.940;2023-06-10T00:33:08;8.63;;;4.20;;
36597;SDS011;22607;49.550;11.940;2023-06-10T00:35:36;7.82;;;3.60;;
36597;SDS011;22607;49.550;11.940;2023-06-10T00:38:02;8.40;;;3.63;;
36597;SDS011;22607;49.550;11.940;2023-06-10T00:40:29;8.13;;;3.75;;
36597;SDS011;22607;49.550;11.940;2023-06-10T00:42:55;7.88;;;3.60;;
36597;SDS011;22607;49.550;11.940;2023-06-10T00:45:23;8.60;;;4.18;;
36597;SDS011;22607;49.550;11.940;2023-06-10T00:47:50;8.82;;;3.83;;
36597;SDS011;22607;49.550;11.940;2023-06-10T00:50:16;8.07;;;3.90;;
36597;SDS011;22607;49.550;11.940;2023-06-10T00:52:43;8.98;;;4.20;;
36597;SDS011;22607;49.550;11.940;2023-06-10T00:55:12;8.18;;;3.75;;
36597;SDS011;22607;49.550;11.940;2023-06-10T00:57:39;9.57;;;4.10;;
36597;SDS011;22607;49.550;11.940;2023-06-10T01:00:06;8.43;;;4.05;;
36597;SDS011;22607;49.550;11.940;2023-06-10T01:02:34;9.27;;;3.80;;
36597;SDS011;22607;49.550;11.940;2023-06-10T01:05:01;7.68;;;3.35;;
36597;SDS011;22607;49.550;11.940;2023-06-10T01:10:31;10.00;;;4.13;;
36597;SDS011;22607;49.550;11.940;2023-06-10T01:13:02;8.88;;;4.63;;
36597;SDS011;22607;49.550;11.940;2023-06-10T01:15:30;8.32;;;3.88;;
36597;SDS011;22607;49.550;11.940;2023-06-10T01:17:59;7.80;;;3.80;;
36597;SDS011;22607;49.550;11.940;2023-06-10T01:20:28;9.77;;;4.43;;
36597;SDS011;22607;49.550;11.940;2023-06-10T01:22:59;8.27;;;4.15;;
36597;SDS011;22607;49.550;11.940;2023-06-10T01:25:27;8.43;;;3.88;;
36597;SDS011;22607;49.550;11.940;2023-06-10T01:28:01;7.65;;;3.53;;
36597;SDS011;22607;49.550;11.940;2023-06-10T01:30:36;8.25;;;3.53;;
36597;SDS011;22607;49.550;11.940;2023-06-10T01:33:16;8.60;;;4.10;;
36597;SDS011;22607;49.550;11.940;2023-06-10T01:35:47;8.23;;;4.03;;
36597;SDS011;22607;49.550;11.940;2023-06-10T01:38:14;8.20;;;3.95;;
36597;SDS011;22607;49.550;11.940;2023-06-10T01:40:42;8.07;;;3.45;;
36597;SDS011;22607;49.550;11.940;2023-06-10T01:43:12;8.00;;;4.00;;
36597;SDS011;22607;49.550;11.940;2023-06-10T01:45:38;8.82;;;4.18;;
36597;SDS011;22607;49.550;11.940;2023-06-10T01:48:05;8.55;;;4.03;;
36597;SDS011;22607;49.550;11.940;2023-06-10T01:50:32;8.15;;;3.95;;
36597;SDS011;22607;49.550;11.940;2023-06-10T01:52:59;8.88;;;4.65;;
36597;SDS011;22607;49.550;11.940;2023-06-10T01:55:26;10.38;;;4.90;;
36597;SDS011;22607;49.550;11.940;2023-06-10T01:57:53;8.73;;;4.45;;
36597;SDS011;22607;49.550;11.940;2023-06-10T02:00:19;8.60;;;4.00;;
36597;SDS011;22607;49.550;11.940;2023-06-10T02:02:46;10.48;;;4.35;;
36597;SDS011;22607;49.550;11.940;2023-06-10T02:05:13;8.25;;;3.67;;
36597;SDS011;22607;49.550;11.940;2023-06-10T02:07:40;8.27;;;4.00;;
36597;SDS011;22607;49.550;11.940;2023-06-10T02:10:06;8.25;;;4.03;;
36597;SDS011;22607;49.550;11.940;2023-06-10T02:12:34;9.73;;;4.28;;
36597;SDS011;22607;49.550;11.940;2023-06-10T02:15:00;9.23;;;4.60;;
36597;SDS011;22607;49.550;11.940;2023-06-10T02:17:30;8.85;;;3.92;;
36597;SDS011;22607;49.550;11.940;2023-06-10T02:19:56;8.85;;;4.30;;
36597;SDS011;22607;49.550;11.940;2023-06-10T02:22:26;8.40;;;4.13;;
36597;SDS011;22607;49.550;11.940;2023-06-10T02:24:52;8.60;;;4.35;;
36597;SDS011;22607;49.550;11.940;2023-06-10T02:27:19;8.80;;;4.28;;
36597;SDS011;22607;49.550;11.940;2023-06-10T02:29:45;8.73;;;4.32;;
36597;SDS011;22607;49.550;11.940;2023-06-10T02:32:12;7.68;;;3.78;;
36597;SDS011;22607;49.550;11.940;2023-06-10T02:34:38;8.63;;;4.30;;
36597;SDS011;22607;49.550;11.940;2023-06-10T02:37:05;8.35;;;3.75;;
36597;SDS011;22607;49.550;11.940;2023-06-10T02:39:32;9.05;;;4.55;;
36597;SDS011;22607;49.550;11.940;2023-06-10T02:41:58;8.25;;;4.25;;
36597;SDS011;22607;49.550;11.940;2023-06-10T02:44:25;8.27;;;4.07;;
36597;SDS011;22607;49.550;11.940;2023-06-10T02:46:51;9.20;;;4.60;;
36597;SDS011;22607;49.550;11.940;2023-06-10T02:49:18;9.43;;;4.65;;
36597;SDS011;22607;49.550;11.940;2023-06-10T02:51:44;9.13;;;4.65;;
36597;SDS011;22607;49.550;11.940;2023-06-10T02:54:11;9.02;;;4.30;;
36597;SDS011;22607;49.550;11.940;2023-06-10T02:56:37;9.73;;;4.40;;
36597;SDS011;22607;49.550;11.940;2023-06-10T02:59:08;8.30;;;4.03;;
36597;SDS011;22607;49.550;11.940;2023-06-10T03:01:34;9.05;;;4.30;;
36597;SDS011;22607;49.550;11.940;2023-06-10T03:04:06;8.70;;;4.40;;
36597;SDS011;22607;49.550;11.940;2023-06-10T03:06:33;8.95;;;4.65;;
36597;SDS011;22607;49.550;11.940;2023-06-10T03:09:01;10.07;;;4.68;;
36597;SDS011;22607;49.550;11.940;2023-06-10T03:11:34;8.63;;;4.53;;
36597;SDS011;22607;49.550;11.940;2023-06-10T03:14:01;9.32;;;4.55;;
36597;SDS011;22607;49.550;11.940;2023-06-10T03:16:28;8.57;;;4.32;;
36597;SDS011;22607;49.550;11.940;2023-06-10T03:18:56;8.77;;;4.40;;
36597;SDS011;22607;49.550;11.940;2023-06-10T03:21:23;9.45;;;4.80;;
36597;SDS011;22607;49.550;11.940;2023-06-10T03:23:50;8.85;;;4.22;;
36597;SDS011;22607;49.550;11.940;2023-06-10T03:26:16;8.95;;;4.20;;
36597;SDS011;22607;49.550;11.940;2023-06-10T03:28:43;8.00;;;3.88;;
36597;SDS011;22607;49.550;11.940;2023-06-10T03:31:09;8.93;;;4.60;;
36597;SDS011;22607;49.550;11.940;2023-06-10T03:33:36;9.05;;;4.72;;
36597;SDS011;22607;49.550;11.940;2023-06-10T03:36:03;8.90;;;4.53;;
36597;SDS011;22607;49.550;11.940;2023-06-10T03:38:31;8.05;;;3.95;;
36597;SDS011;22607;49.550;11.940;2023-06-10T03:40:58;10.20;;;4.80;;
36597;SDS011;22607;49.550;11.940;2023-06-10T03:43:24;10.05;;;4.70;;
36597;SDS011;22607;49.550;11.940;2023-06-10T03:45:51;9.85;;;4.60;;
36597;SDS011;22607;49.550;11.940;2023-06-10T03:48:18;8.20;;;4.10;;
36597;SDS011;22607;49.550;11.940;2023-06-10T03:50:45;9.95;;;4.82;;
36597;SDS011;22607;49.550;11.940;2023-06-10T03:53:13;9.30;;;4.72;;
36597;SDS011;22607;49.550;11.940;2023-06-10T03:55:40;8.20;;;4.18;;
36597;SDS011;22607;49.550;11.940;2023-06-10T03:58:07;9.20;;;4.53;;
36597;SDS011;22607;49.550;11.940;2023-06-10T04:00:33;8.57;;;4.70;;
36597;SDS011;22607;49.550;11.940;2023-06-10T04:03:08;8.70;;;4.25;;
36597;SDS011;22607;49.550;11.940;2023-06-10T04:05:35;9.20;;;4.63;;
36597;SDS011;22607;49.550;11.940;2023-06-10T04:08:02;8.68;;;4.50;;
36597;SDS011;22607;49.550;11.940;2023-06-10T04:10:29;8.75;;;4.55;;
36597;SDS011;22607;49.550;11.940;2023-06-10T04:12:55;8.85;;;4.85;;
36597;SDS011;22607;49.550;11.940;2023-06-10T04:15:22;8.95;;;4.28;;
36597;SDS011;22607;49.550;11.940;2023-06-10T04:17:48;8.68;;;4.63;;
36597;SDS011;22607;49.550;11.940;2023-06-10T04:20:15;9.77;;;4.80;;
36597;SDS011;22607;49.550;11.940;2023-06-10T04:22:45;10.20;;;5.00;;
36597;SDS011;22607;49.550;11.940;2023-06-10T04:25:12;9.65;;;4.75;;
36597;SDS011;22607;49.550;11.940;2023-06-10T04:27:38;9.30;;;4.88;;
36597;SDS011;22607;49.550;11.940;2023-06-10T04:30:05;9.18;;;4.82;;
36597;SDS011;22607;49.550;11.940;2023-06-10T04:32:32;10.35;;;5.10;;
36597;SDS011;22607;49.550;11.940;2023-06-10T04:34:59;9.75;;;4.72;;
36597;SDS011;22607;49.550;11.940;2023-06-10T04:37:26;9.35;;;4.95;;
36597;SDS011;22607;49.550;11.940;2023-06-10T04:39:52;9.40;;;4.93;;
36597;SDS011;22607;49.550;11.940;2023-06-10T04:42:19;8.52;;;4.60;;
36597;SDS011;22607;49.550;11.940;2023-06-10T04:44:45;8.93;;;4.70;;
36597;SDS011;22607;49.550;11.940;2023-06-10T04:47:12;8.93;;;4.10;;
36597;SDS011;22607;49.550;11.940;2023-06-10T04:49:39;9.25;;;5.20;;
36597;SDS011;22607;49.550;11.940;2023-06-10T04:52:06;8.60;;;4.65;;
36597;SDS011;22607;49.550;11.940;2023-06-10T04:54:33;9.07;;;4.88;;
36597;SDS011;22607;49.550;11.940;2023-06-10T04:56:59;8.65;;;4.40;;
36597;SDS011;22607;49.550;11.940;2023-06-10T04:59:26;9.35;;;5.07;;
36597;SDS011;22607;49.550;11.940;2023-06-10T05:01:53;9.68;;;5.40;;
36597;SDS011;22607;49.550;11.940;2023-06-10T05:04:21;9.98;;;5.75;;
36597;SDS011;22607;49.550;11.940;2023-06-10T05:06:47;12.55;;;6.22;;
36597;SDS011;22607;49.550;11.940;2023-06-10T05:09:14;11.20;;;6.45;;
36597;SDS011;22607;49.550;11.940;2023-06-10T05:11:40;11.93;;;5.78;;
36597;SDS011;22607;49.550;11.940;2023-06-10T05:14:07;9.27;;;5.20;;
36597;SDS011;22607;49.550;11.940;2023-06-10T05:16:33;9.82;;;4.78;;
36597;SDS011;22607;49.550;11.940;2023-06-10T05:19:00;9.77;;;5.25;;
36597;SDS011;22607;49.550;11.940;2023-06-10T05:21:26;11.70;;;6.40;;
36597;SDS011;22607;49.550;11.940;2023-06-10T05:23:53;9.45;;;5.70;;
36597;SDS011;22607;49.550;11.940;2023-06-10T05:26:20;10.82;;;6.05;;
36597;SDS011;22607;49.550;11.940;2023-06-10T05:28:47;9.65;;;5.88;;
36597;SDS011;22607;49.550;11.940;2023-06-10T05:31:13;10.30;;;6.03;;
36597;SDS011;22607;49.550;11.940;2023-06-10T05:33:40;9.88;;;5.38;;
36597;SDS011;22607;49.550;11.940;2023-06-10T05:36:08;10.25;;;5.88;;
36597;SDS011;22607;49.550;11.940;2023-06-10T05:38:35;10.02;;;6.03;;
36597;SDS011;22607;49.550;11.940;2023-06-10T05:41:02;8.98;;;4.97;;
36597;SDS011;22607;49.550;11.940;2023-06-10T05:43:29;9.50;;;5.57;;
36597;SDS011;22607;49.550;11.940;2023-06-10T05:45:56;8.68;;;4.60;;
36597;SDS011;22607;49.550;11.940;2023-06-10T05:48:22;11.25;;;5.60;;
36597;SDS011;22607;49.550;11.940;2023-06-10T05:50:49;9.15;;;4.88;;
36597;SDS011;22607;49.550;11.940;2023-06-10T05:53:17;9.25;;;4.60;;
36597;SDS011;22607;49.550;11.940;2023-06-10T05:55:44;8.95;;;4.85;;
36597;SDS011;22607;49.550;11.940;2023-06-10T05:58:11;9.32;;;5.30;;
36597;SDS011;22607;49.550;11.940;2023-06-10T06:00:40;9.95;;;5.07;;
36597;SDS011;22607;49.550;11.940;2023-06-10T06:03:07;9.25;;;5.45;;
36597;SDS011;22607;49.550;11.940;2023-06-10T06:05:35;9.07;;;5.00;;
36597;SDS011;22607;49.550;11.940;2023-06-10T06:08:09;8.88;;;4.38;;
36597;SDS011;22607;49.550;11.940;2023-06-10T06:10:36;8.90;;;4.95;;
36597;SDS011;22607;49.550;11.940;2023-06-10T06:13:02;9.27;;;4.97;;
36597;SDS011;22607;49.550;11.940;2023-06-10T06:15:29;8.95;;;4.93;;
36597;SDS011;22607;49.550;11.940;2023-06-10T06:17:56;9.35;;;5.05;;
36597;SDS011;22607;49.550;11.940;2023-06-10T06:20:22;9.45;;;5.57;;
36597;SDS011;22607;49.550;11.940;2023-06-10T06:22:49;9.48;;;5.47;;
36597;SDS011;22607;49.550;11.940;2023-06-10T06:25:16;8.65;;;4.63;;
36597;SDS011;22607;49.550;11.940;2023-06-10T06:27:42;10.20;;;5.55;;
36597;SDS011;22607;49.550;11.940;2023-06-10T06:30:09;9.20;;;5.55;;
36597;SDS011;22607;49.550;11.940;2023-06-10T06:32:36;9.15;;;5.60;;
36597;SDS011;22607;49.550;11.940;2023-06-10T06:35:02;10.70;;;6.05;;
36597;SDS011;22607;49.550;11.940;2023-06-10T06:37:32;11.20;;;6.20;;
36597;SDS011;22607;49.550;11.940;2023-06-10T06:39:59;11.02;;;6.28;;
36597;SDS011;22607;49.550;11.940;2023-06-10T06:42:30;9.55;;;5.30;;
36597;SDS011;22607;49.550;11.940;2023-06-10T06:44:57;9.23;;;5.15;;
36597;SDS011;22607;49.550;11.940;2023-06-10T06:47:23;8.98;;;5.10;;
36597;SDS011;22607;49.550;11.940;2023-06-10T06:49:51;14.90;;;5.88;;
36597;SDS011;22607;49.550;11.940;2023-06-10T06:52:17;8.95;;;5.05;;
36597;SDS011;22607;49.550;11.940;2023-06-10T06:54:48;9.07;;;5.10;;
36597;SDS011;22607;49.550;11.940;2023-06-10T06:57:14;9.13;;;5.50;;
36597;SDS011;22607;49.550;11.940;2023-06-10T06:59:41;10.63;;;5.72;;
36597;SDS011;22607;49.550;11.940;2023-06-10T07:02:08;10.45;;;5.88;;
36597;SDS011;22607;49.550;11.940;2023-06-10T07:04:34;8.85;;;5.25;;
36597;SDS011;22607;49.550;11.940;2023-06-10T07:07:01;9.57;;;5.07;;
36597;SDS011;22607;49.550;11.940;2023-06-10T07:09:28;9.68;;;4.57;;
36597;SDS011;22607;49.550;11.940;2023-06-10T07:11:54;8.05;;;4.22;;
36597;SDS011;22607;49.550;11.940;2023-06-10T07:14:21;8.75;;;3.80;;
36597;SDS011;22607;49.550;11.940;2023-06-10T07:16:47;9.13;;;4.40;;
36597;SDS011;22607;49.550;11.940;2023-06-10T07:19:14;8.18;;;3.90;;
36597;SDS011;22607;49.550;11.940;2023-06-10T07:21:41;8.30;;;4.57;;
36597;SDS011;22607;49.550;11.940;2023-06-10T07:24:08;8.43;;;4.30;;
36597;SDS011;22607;49.550;11.940;2023-06-10T07:26:35;7.93;;;4.30;;
36597;SDS011;22607;49.550;11.940;2023-06-10T07:29:01;7.95;;;4.35;;
36597;SDS011;22607;49.550;11.940;2023-06-10T07:31:28;8.25;;;4.30;;
36597;SDS011;22607;49.550;11.940;2023-06-10T07:33:55;8.35;;;4.50;;
36597;SDS011;22607;49.550;11.940;2023-06-10T07:36:25;9.07;;;5.07;;
36597;SDS011;22607;49.550;11.940;2023-06-10T07:38:54;8.45;;;4.55;;
36597;SDS011;22607;49.550;11.940;2023-06-10T07:41:23;8.85;;;4.45;;
36597;SDS011;22607;49.550;11.940;2023-06-10T07:43:54;9.50;;;4.25;;
36597;SDS011;22607;49.550;11.940;2023-06-10T07:46:21;8.80;;;4.90;;
36597;SDS011;22607;49.550;11.940;2023-06-10T07:48:48;8.45;;;4.75;;
36597;SDS011;22607;49.550;11.940;2023-06-10T07:51:15;7.55;;;4.00;;
36597;SDS011;22607;49.550;11.940;2023-06-10T07:53:43;8.73;;;4.60;;
36597;SDS011;22607;49.550;11.940;2023-06-10T07:56:10;8.65;;;5.03;;
36597;SDS011;22607;49.550;11.940;2023-06-10T07:58:36;8.13;;;4.20;;
36597;SDS011;22607;49.550;11.940;2023-06-10T08:01:03;8.45;;;4.72;;
36597;SDS011;22607;49.550;11.940;2023-06-10T08:03:30;9.05;;;4.68;;
36597;SDS011;22607;49.550;11.940;2023-06-10T08:05:56;7.75;;;4.30;;
36597;SDS011;22607;49.550;11.940;2023-06-10T08:08:23;7.88;;;3.92;;
36597;SDS011;22607;49.550;11.940;2023-06-10T08:10:49;8.85;;;5.05;;
36597;SDS011;22607;49.550;11.940;2023-06-10T08:13:16;9.52;;;4.72;;
36597;SDS011;22607;49.550;11.940;2023-06-10T08:15:42;8.75;;;4.70;;
36597;SDS011;22607;49.550;11.940;2023-06-10T08:18:09;8.38;;;4.45;;
36597;SDS011;22607;49.550;11.940;2023-06-10T08:20:35;9.18;;;4.20;;
36597;SDS011;22607;49.550;11.940;2023-06-10T08:23:02;8.10;;;4.00;;
36597;SDS011;22607;49.550;11.940;2023-06-10T08:25:29;8.32;;;4.30;;
36597;SDS011;22607;49.550;11.940;2023-06-10T08:28:01;8.40;;;4.05;;
36597;SDS011;22607;49.550;11.940;2023-06-10T08:30:28;7.97;;;4.15;;
36597;SDS011;22607;49.550;11.940;2023-06-10T08:32:54;8.60;;;5.03;;
36597;SDS011;22607;49.550;11.940;2023-06-10T08:35:22;9.10;;;4.60;;
36597;SDS011;22607;49.550;11.940;2023-06-10T08:37:48;8.20;;;4.40;;
36597;SDS011;22607;49.550;11.940;2023-06-10T08:40:15;8.15;;;4.30;;
36597;SDS011;22607;49.550;11.940;2023-06-10T08:45:17;8.02;;;4.00;;
36597;SDS011;22607;49.550;11.940;2023-06-10T08:47:45;8.10;;;4.32;;
36597;SDS011;22607;49.550;11.940;2023-06-10T08:50:12;9.13;;;4.35;;
36597;SDS011;22607;49.550;11.940;2023-06-10T08:52:41;8.85;;;4.30;;
36597;SDS011;22607;49.550;11.940;2023-06-10T08:55:21;8.30;;;3.55;;
36597;SDS011;22607;49.550;11.940;2023-06-10T08:58:00;7.25;;;3.70;;
36597;SDS011;22607;49.550;11.940;2023-06-10T09:00:30;7.43;;;3.45;;
36597;SDS011;22607;49.550;11.940;2023-06-10T09:02:58;7.53;;;3.50;;
36597;SDS011;22607;49.550;11.940;2023-06-10T09:05:31;7.47;;;3.40;;
36597;SDS011;22607;49.550;11.940;2023-06-10T09:07:59;7.40;;;3.30;;
36597;SDS011;22607;49.550;11.940;2023-06-10T09:10:26;7.88;;;3.63;;
36597;SDS011;22607;49.550;11.940;2023-06-10T09:12:53;7.50;;;3.45;;
36597;SDS011;22607;49.550;11.940;2023-06-10T09:15:20;7.78;;;3.40;;
36597;SDS011;22607;49.550;11.940;2023-06-10T09:17:48;7.55;;;3.80;;
36597;SDS011;22607;49.550;11.940;2023-06-10T09:20:14;7.43;;;3.35;;
36597;SDS011;22607;49.550;11.940;2023-06-10T09:25:11;8.05;;;3.60;;
36597;SDS011;22607;49.550;11.940;2023-06-10T09:30:23;6.63;;;2.90;;
36597;SDS011;22607;49.550;11.940;2023-06-10T09:32:53;6.80;;;3.33;;
36597;SDS011;22607;49.550;11.940;2023-06-10T09:35:26;7.50;;;3.60;;
36597;SDS011;22607;49.550;11.940;2023-06-10T09:40:21;7.45;;;3.67;;
36597;SDS011;22607;49.550;11.940;2023-06-10T09:42:52;6.90;;;3.35;;
36597;SDS011;22607;49.550;11.940;2023-06-10T09:45:22;7.07;;;3.03;;
36597;SDS011;22607;49.550;11.940;2023-06-10T09:47:52;7.22;;;3.25;;
36597;SDS011;22607;49.550;11.940;2023-06-10T09:50:21;7.22;;;3.60;;
36597;SDS011;22607;49.550;11.940;2023-06-10T09:52:48;7.18;;;3.00;;
36597;SDS011;22607;49.550;11.940;2023-06-10T09:55:14;7.35;;;3.30;;
36597;SDS011;22607;49.550;11.940;2023-06-10T09:57:41;7.18;;;3.03;;
36597;SDS011;22607;49.550;11.940;2023-06-10T10:00:11;6.97;;;3.20;;
36597;SDS011;22607;49.550;11.940;2023-06-10T10:05:14;6.90;;;2.45;;
36597;SDS011;22607;49.550;11.940;2023-06-10T10:07:42;6.88;;;2.65;;
36597;SDS011;22607;49.550;11.940;2023-06-10T10:10:11;6.03;;;2.35;;
36597;SDS011;22607;49.550;11.940;2023-06-10T10:12:39;6.85;;;2.70;;
36597;SDS011;22607;49.550;11.940;2023-06-10T10:15:10;6.65;;;2.88;;
36597;SDS011;22607;49.550;11.940;2023-06-10T10:17:39;6.75;;;2.72;;
36597;SDS011;22607;49.550;11.940;2023-06-10T10:20:09;6.90;;;2.92;;
36597;SDS011;22607;49.550;11.940;2023-06-10T10:22:39;6.90;;;2.85;;
36597;SDS011;22607;49.550;11.940;2023-06-10T10:25:13;7.50;;;2.90;;
36597;SDS011;22607;49.550;11.940;2023-06-10T10:28:25;7.70;;;2.40;;
36597;SDS011;22607;49.550;11.940;2023-06-10T10:30:40;8.45;;;3.15;;
36597;SDS011;22607;49.550;11.940;2023-06-10T10:35:39;5.55;;;2.13;;
36597;SDS011;22607;49.550;11.940;2023-06-10T10:38:06;7.30;;;2.97;;
36597;SDS011;22607;49.550;11.940;2023-06-10T10:40:33;7.30;;;3.03;;
36597;SDS011;22607;49.550;11.940;2023-06-10T10:43:00;6.10;;;2.70;;
36597;SDS011;22607;49.550;11.940;2023-06-10T10:45:28;6.38;;;2.65;;
36597;SDS011;22607;49.550;11.940;2023-06-10T10:47:55;5.85;;;2.30;;
36597;SDS011;22607;49.550;11.940;2023-06-10T10:50:23;6.97;;;2.40;;
36597;SDS011;22607;49.550;11.940;2023-06-10T10:52:51;8.77;;;3.17;;
36597;SDS011;22607;49.550;11.940;2023-06-10T10:55:23;6.90;;;2.92;;
36597;SDS011;22607;49.550;11.940;2023-06-10T11:00:34;5.63;;;2.15;;
36597;SDS011;22607;49.550;11.940;2023-06-10T11:05:37;6.03;;;2.70;;
36597;SDS011;22607;49.550;11.940;2023-06-10T11:08:11;7.05;;;3.17;;
36597;SDS011;22607;49.550;11.940;2023-06-10T11:10:39;6.30;;;2.50;;
36597;SDS011;22607;49.550;11.940;2023-06-10T11:13:10;6.15;;;2.70;;
36597;SDS011;22607;49.550;11.940;2023-06-10T11:15:43;5.93;;;2.25;;
36597;SDS011;22607;49.550;11.940;2023-06-10T11:18:29;4.68;;;1.85;;
36597;SDS011;22607;49.550;11.940;2023-06-10T11:21:02;6.50;;;2.20;;
36597;SDS011;22607;49.550;11.940;2023-06-10T11:33:49;5.68;;;2.30;;
36597;SDS011;22607;49.550;11.940;2023-06-10T11:36:21;5.85;;;2.20;;
36597;SDS011;22607;49.550;11.940;2023-06-10T11:38:48;5.22;;;2.00;;
36597;SDS011;22607;49.550;11.940;2023-06-10T11:41:16;5.47;;;2.20;;
36597;SDS011;22607;49.550;11.940;2023-06-10T11:43:44;5.63;;;2.20;;
36597;SDS011;22607;49.550;11.940;2023-06-10T11:46:12;5.53;;;2.20;;
36597;SDS011;22607;49.550;11.940;2023-06-10T11:48:55;5.07;;;2.05;;
36597;SDS011;22607;49.550;11.940;2023-06-10T11:51:28;5.35;;;2.03;;
36597;SDS011;22607;49.550;11.940;2023-06-10T11:53:58;4.80;;;1.73;;
36597;SDS011;22607;49.550;11.940;2023-06-10T11:56:25;11.90;;;2.58;;
36597;SDS011;22607;49.550;11.940;2023-06-10T12:01:25;4.93;;;1.77;;
36597;SDS011;22607;49.550;11.940;2023-06-10T12:04:02;9.73;;;2.50;;
36597;SDS011;22607;49.550;11.940;2023-06-10T12:06:47;7.03;;;2.20;;
36597;SDS011;22607;49.550;11.940;2023-06-10T12:09:22;5.43;;;1.60;;
36597;SDS011;22607;49.550;11.940;2023-06-10T12:12:03;5.65;;;2.00;;
36597;SDS011;22607;49.550;11.940;2023-06-10T12:17:23;7.07;;;1.95;;
36597;SDS011;22607;49.550;11.940;2023-06-10T12:20:04;5.55;;;2.10;;
36597;SDS011;22607;49.550;11.940;2023-06-10T12:22:41;5.05;;;1.83;;
36597;SDS011;22607;49.550;11.940;2023-06-10T12:25:10;5.97;;;2.25;;
36597;SDS011;22607;49.550;11.940;2023-06-10T12:27:38;5.30;;;1.95;;
36597;SDS011;22607;49.550;11.940;2023-06-10T12:30:07;5.53;;;2.08;;
36597;SDS011;22607;49.550;11.940;2023-06-10T12:32:38;5.22;;;1.90;;
36597;SDS011;22607;49.550;11.940;2023-06-10T12:35:05;5.80;;;2.00;;
36597;SDS011;22607;49.550;11.940;2023-06-10T12:37:33;5.78;;;2.00;;
36597;SDS011;22607;49.550;11.940;2023-06-10T12:40:01;4.20;;;1.58;;
36597;SDS011;22607;49.550;11.940;2023-06-10T12:42:32;4.78;;;1.85;;
36597;SDS011;22607;49.550;11.940;2023-06-10T12:45:01;4.40;;;1.80;;
36597;SDS011;22607;49.550;11.940;2023-06-10T12:47:32;5.65;;;2.20;;
36597;SDS011;22607;49.550;11.940;2023-06-10T12:50:01;8.60;;;2.28;;
36597;SDS011;22607;49.550;11.940;2023-06-10T12:52:29;5.47;;;1.90;;
36597;SDS011;22607;49.550;11.940;2023-06-10T12:54:58;5.47;;;2.17;;
36597;SDS011;22607;49.550;11.940;2023-06-10T12:57:25;5.15;;;2.08;;
36597;SDS011;22607;49.550;11.940;2023-06-10T13:02:52;5.88;;;2.40;;
36597;SDS011;22607;49.550;11.940;2023-06-10T13:05:19;6.70;;;2.50;;
36597;SDS011;22607;49.550;11.940;2023-06-10T13:07:47;6.30;;;2.42;;
36597;SDS011;22607;49.550;11.940;2023-06-10T13:10:14;6.40;;;2.60;;
36597;SDS011;22607;49.550;11.940;2023-06-10T13:12:43;9.23;;;3.17;;
36597;SDS011;22607;49.550;11.940;2023-06-10T13:15:14;7.43;;;2.92;;
36597;SDS011;22607;49.550;11.940;2023-06-10T13:17:41;6.75;;;2.90;;
36597;SDS011;22607;49.550;11.940;2023-06-10T13:20:18;6.43;;;3.08;;
36597;SDS011;22607;49.550;11.940;2023-06-10T13:22:46;7.05;;;3.05;;
36597;SDS011;22607;49.550;11.940;2023-06-10T13:25:14;7.65;;;3.22;;
36597;SDS011;22607;49.550;11.940;2023-06-10T13:27:48;8.77;;;3.80;;
36597;SDS011;22607;49.550;11.940;2023-06-10T13:30:14;8.75;;;3.78;;
36597;SDS011;22607;49.550;11.940;2023-06-10T13:32:41;8.02;;;3.97;;
36597;SDS011;22607;49.550;11.940;2023-06-10T13:35:07;7.57;;;3.97;;
36597;SDS011;22607;49.550;11.940;2023-06-10T13:37:35;7.22;;;3.92;;
36597;SDS011;22607;49.550;11.940;2023-06-10T13:40:02;8.32;;;4.25;;
36597;SDS011;22607;49.550;11.940;2023-06-10T13:42:30;8.55;;;4.20;;
36597;SDS011;22607;49.550;11.940;2023-06-10T13:44:56;9.00;;;4.78;;
36597;SDS011;22607;49.550;11.940;2023-06-10T13:47:24;9.23;;;4.70;;
36597;SDS011;22607;49.550;11.940;2023-06-10T13:49:51;9.48;;;5.30;;
36597;SDS011;22607;49.550;11.940;2023-06-10T13:52:18;8.70;;;4.93;;
36597;SDS011;22607;49.550;11.940;2023-06-10T13:54:44;8.60;;;4.82;;
36597;SDS011;22607;49.550;11.940;2023-06-10T13:57:11;9.25;;;5.20;;
36597;SDS011;22607;49.550;11.940;2023-06-10T13:59:38;10.30;;;5.72;;
36597;SDS011;22607;49.550;11.940;2023-06-10T14:02:04;10.40;;;5.38;;
36597;SDS011;22607;49.550;11.940;2023-06-10T14:04:31;9.07;;;4.88;;
36597;SDS011;22607;49.550;11.940;2023-06-10T14:06:58;10.15;;;5.10;;
36597;SDS011;22607;49.550;11.940;2023-06-10T14:09:25;9.40;;;5.50;;
36597;SDS011;22607;49.550;11.940;2023-06-10T14:11:51;10.00;;;4.97;;
36597;SDS011;22607;49.550;11.940;2023-06-10T14:14:18;11.88;;;4.93;;
36597;SDS011;22607;49.550;11.940;2023-06-10T14:16:45;8.77;;;4.80;;
36597;SDS011;22607;49.550;11.940;2023-06-10T14:19:12;8.43;;;4.10;;
36597;SDS011;22607;49.550;11.940;2023-06-10T14:21:39;7.80;;;4.10;;
36597;SDS011;22607;49.550;11.940;2023-06-10T14:24:06;8.10;;;3.85;;
36597;SDS011;22607;49.550;11.940;2023-06-10T14:26:32;8.40;;;4.10;;
36597;SDS011;22607;49.550;11.940;2023-06-10T14:28:59;8.50;;;3.88;;
36597;SDS011;22607;49.550;11.940;2023-06-10T14:31:26;9.15;;;4.60;;
36597;SDS011;22607;49.550;11.940;2023-06-10T14:33:52;7.75;;;4.07;;
36597;SDS011;22607;49.550;11.940;2023-06-10T14:36:19;8.43;;;4.40;;
36597;SDS011;22607;49.550;11.940;2023-06-10T14:38:46;8.60;;;3.88;;
36597;SDS011;22607;49.550;11.940;2023-06-10T14:41:12;8.07;;;4.10;;
36597;SDS011;22607;49.550;11.940;2023-06-10T14:43:39;9.00;;;4.25;;
36597;SDS011;22607;49.550;11.940;2023-06-10T14:46:06;8.88;;;4.22;;
36597;SDS011;22607;49.550;11.940;2023-06-10T14:48:32;8.88;;;3.90;;
36597;SDS011;22607;49.550;11.940;2023-06-10T14:50:59;7.85;;;3.88;;
36597;SDS011;22607;49.550;11.940;2023-06-10T14:53:26;8.60;;;3.28;;
36597;SDS011;22607;49.550;11.940;2023-06-10T14:55:53;6.53;;;2.92;;
36597;SDS011;22607;49.550;11.940;2023-06-10T14:58:19;7.63;;;2.90;;
36597;SDS011;22607;49.550;11.940;2023-06-10T15:00:46;7.68;;;3.33;;
36597;SDS011;22607;49.550;11.940;2023-06-10T15:03:12;7.15;;;2.80;;
36597;SDS011;22607;49.550;11.940;2023-06-10T15:05:39;7.95;;;3.40;;
36597;SDS011;22607;49.550;11.940;2023-06-10T15:08:06;7.05;;;3.28;;
36597;SDS011;22607;49.550;11.940;2023-06-10T15:10:33;8.00;;;3.33;;
36597;SDS011;22607;49.550;11.940;2023-06-10T15:12:59;8.23;;;3.38;;
36597;SDS011;22607;49.550;11.940;2023-06-10T15:15:26;8.55;;;3.95;;
36597;SDS011;22607;49.550;11.940;2023-06-10T15:17:52;8.73;;;3.70;;
36597;SDS011;22607;49.550;11.940;2023-06-10T15:20:20;8.25;;;3.40;;